Time;durP1;ratioP1;P1;durP2;ratioP2;P2;SDS_P1;SDS_P2;PMS_P1;PMS_P2;Temp;Humidity;BMP_temperature;BMP_pressure;BME280_temperature;BME280_humidity;BME280_pressure;Samples;Min_cycle;Max_cycle;Signal;HPM_P1;HPM_P2
2021/11/19 00:00:57;;;;;;;66.63;26.70;;;;;;;4.65;76.78;101500.88;5024408;28;20106;-63
2021/11/19 00:03:24;;;;;;;55.15;23.35;;;;;;;4.67;76.91;101495.00;5030086;28;20025;-61
2021/11/19 00:05:50;;;;;;;53.10;24.63;;;;;;;4.72;77.23;101491.22;5022925;28;20108;-43
2021/11/19 00:08:21;;;;;;;44.50;22.25;;;;;;;4.72;76.46;101480.06;5025559;28;20034;-48
2021/11/19 00:10:48;;;;;;;28.35;16.80;;;;;;;4.83;76.78;101479.31;5025861;28;20135;-53
2021/11/19 00:13:13;;;;;;;27.85;14.30;;;;;;;4.92;76.83;101490.41;5027246;28;20389;-62
2021/11/19 00:15:38;;;;;;;24.73;15.20;;;;;;;5.05;76.29;101488.53;5026288;28;20026;-56
2021/11/19 00:18:05;;;;;;;28.73;15.55;;;;;;;5.00;75.99;101477.59;5029027;28;20021;-64
2021/11/19 00:20:32;;;;;;;27.63;17.67;;;;;;;4.99;76.47;101489.88;5021779;28;20032;-52
2021/11/19 00:22:59;;;;;;;33.22;17.73;;;;;;;4.95;76.00;101490.56;5026228;28;20080;-64
2021/11/19 00:25:26;;;;;;;57.80;25.80;;;;;;;4.93;76.45;101492.88;5024798;28;20026;-53
2021/11/19 00:27:52;;;;;;;59.63;26.80;;;;;;;4.89;76.56;101485.50;5025880;28;20025;-61
2021/11/19 00:30:19;;;;;;;44.35;20.63;;;;;;;4.83;77.08;101490.47;5027795;28;20029;-62
2021/11/19 00:32:46;;;;;;;32.78;18.38;;;;;;;4.80;76.88;101493.13;5030138;28;20416;-45
2021/11/19 00:35:14;;;;;;;29.13;16.20;;;;;;;4.80;76.84;101493.13;5029811;28;20029;-56
2021/11/19 00:37:41;;;;;;;35.85;19.60;;;;;;;4.78;77.22;101489.84;5035691;28;20108;-63
2021/11/19 00:40:12;;;;;;;35.13;19.83;;;;;;;4.79;77.71;101506.22;5035646;28;20033;-51
2021/11/19 00:42:38;;;;;;;44.92;22.92;;;;;;;4.83;77.60;101509.16;5035756;28;20025;-63
2021/11/19 00:45:04;;;;;;;42.42;22.92;;;;;;;4.87;76.75;101512.88;5035336;28;20050;-61
2021/11/19 00:47:30;;;;;;;46.45;21.70;;;;;;;4.84;76.91;101508.00;5035725;28;20045;-51
2021/11/19 00:49:59;;;;;;;39.28;21.55;;;;;;;4.80;76.77;101504.25;5035647;28;20021;-46
2021/11/19 00:52:26;;;;;;;32.78;19.17;;;;;;;4.78;76.59;101506.56;5035424;28;20056;-62
2021/11/19 00:54:53;;;;;;;32.20;17.80;;;;;;;4.77;77.48;101510.50;5034339;28;20029;-63
2021/11/19 00:57:20;;;;;;;28.85;16.77;;;;;;;4.80;77.48;101504.25;5035522;28;20159;-63
2021/11/19 00:59:45;;;;;;;27.38;16.45;;;;;;;4.78;77.48;101506.56;5034325;28;20432;-63
2021/11/19 01:02:19;;;;;;;25.17;14.75;;;;;;;4.78;77.45;101489.84;5035547;28;20033;-62
2021/11/19 01:04:45;;;;;;;30.08;16.02;;;;;;;4.81;77.33;101501.13;5035027;28;20021;-62
2021/11/19 01:07:12;;;;;;;30.60;17.05;;;;;;;4.81;77.03;101503.09;5030240;28;20026;-54
2021/11/19 01:09:41;;;;;;;29.52;17.70;;;;;;;4.77;77.18;101499.34;5034982;28;20036;-63
2021/11/19 01:12:10;;;;;;;32.83;17.65;;;;;;;4.74;77.31;101500.03;5035456;28;20136;-55
2021/11/19 01:14:48;;;;;;;28.90;17.00;;;;;;;4.74;77.85;101500.03;5035279;28;20021;-50
2021/11/19 01:17:18;;;;;;;25.23;15.52;;;;;;;4.80;77.55;101502.28;5035517;28;20059;-51
2021/11/19 01:20:05;;;;;;;30.20;16.10;;;;;;;4.85;77.86;101492.91;5035500;28;20030;-49
2021/11/19 01:22:33;;;;;;;27.63;13.90;;;;;;;4.85;77.01;101490.13;5024117;28;20152;-63
2021/11/19 01:24:59;;;;;;;24.35;14.75;;;;;;;4.81;76.71;101491.97;5035071;28;20028;-64
2021/11/19 01:27:25;;;;;;;26.90;15.05;;;;;;;4.76;77.23;101486.59;5035194;28;20037;-56
2021/11/19 01:29:52;;;;;;;24.17;15.10;;;;;;;4.70;77.46;101477.63;5035357;28;20044;-62
2021/11/19 01:32:21;;;;;;;25.23;14.38;;;;;;;4.67;77.55;101483.03;5035447;28;20021;-64
2021/11/19 01:34:48;;;;;;;25.70;14.35;;;;;;;4.61;77.34;101486.00;5035237;28;20021;-62
2021/11/19 01:37:14;;;;;;;26.05;15.40;;;;;;;4.60;77.53;101487.16;5035124;28;20017;-47
2021/11/19 01:39:41;;;;;;;27.98;15.90;;;;;;;4.60;78.18;101495.50;5035309;28;20079;-50
2021/11/19 01:42:19;;;;;;;22.00;15.02;;;;;;;4.57;78.05;101479.47;5035026;28;20109;-64
2021/11/19 01:45:05;;;;;;;22.85;14.95;;;;;;;4.54;78.12;101482.94;5034999;28;20072;-63
2021/11/19 01:47:33;;;;;;;24.58;15.18;;;;;;;4.53;78.24;101467.38;5035279;28;20021;-54
2021/11/19 01:49:59;;;;;;;25.73;15.45;;;;;;;4.57;78.19;101471.13;5035175;28;20025;-64
2021/11/19 01:52:38;;;;;;;27.63;15.93;;;;;;;4.63;78.09;101464.19;5034486;28;20025;-46
2021/11/19 01:55:15;;;;;;;27.15;15.05;;;;;;;4.63;77.95;101461.41;5035035;28;20409;-44
2021/11/19 01:57:48;;;;;;;26.30;15.18;;;;;;;4.63;78.09;101458.63;5034906;28;20026;-62
2021/11/19 02:00:32;;;;;;;23.92;14.73;;;;;;;4.62;78.32;101462.56;5035120;28;20108;-63
2021/11/19 02:02:59;;;;;;;23.30;14.23;;;;;;;4.58;78.08;101458.81;5035066;28;20021;-49
2021/11/19 02:05:38;;;;;;;25.42;14.93;;;;;;;4.57;78.21;101459.97;5034869;28;20367;-63
2021/11/19 02:08:10;;;;;;;23.98;14.27;;;;;;;4.54;78.13;101459.84;5033644;28;20088;-62
2021/11/19 02:11:01;;;;;;;23.20;14.00;;;;;;;4.56;78.58;101458.34;5034981;28;20038;-52
2021/11/19 02:13:49;;;;;;;23.80;15.40;;;;;;;4.51;78.49;101449.38;5034621;28;20039;-48
2021/11/19 02:16:19;;;;;;;26.10;15.52;;;;;;;4.48;79.04;101442.53;5036863;28;20056;-52
2021/11/19 02:18:44;;;;;;;25.85;16.08;;;;;;;4.45;78.71;101448.75;5038334;28;20032;-46
2021/11/19 02:21:32;;;;;;;24.25;15.40;;;;;;;4.42;79.22;101451.41;5038538;28;20324;-64
2021/11/19 02:24:28;;;;;;;23.80;15.10;;;;;;;4.37;79.27;101469.09;5037817;28;20484;-63
2021/11/19 02:27:07;;;;;;;22.52;14.93;;;;;;;4.33;78.96;101468.13;5038242;28;20401;-63
2021/11/19 02:29:39;;;;;;;29.80;17.13;;;;;;;4.32;78.86;101474.84;5038198;28;20620;-49
2021/11/19 02:32:12;;;;;;;28.67;15.65;;;;;;;4.28;79.07;101454.41;5038197;28;20025;-64
2021/11/19 02:34:38;;;;;;;26.30;15.70;;;;;;;4.24;79.08;101453.44;5037363;28;20412;-59
2021/11/19 02:37:11;;;;;;;23.95;16.10;;;;;;;4.26;79.98;101451.13;5037391;28;20033;-49
2021/11/19 02:39:50;;;;;;;23.20;14.85;;;;;;;4.25;79.20;101446.72;5034850;28;20033;-50
2021/11/19 02:42:25;;;;;;;23.20;15.85;;;;;;;4.21;78.60;101448.53;5037028;28;20037;-64
2021/11/19 02:44:54;;;;;;;23.73;15.38;;;;;;;4.19;79.19;101462.78;5037832;28;20037;-56
2021/11/19 02:47:22;;;;;;;24.45;15.18;;;;;;;4.20;79.39;101458.88;5037699;28;20036;-56
2021/11/19 02:49:48;;;;;;;25.00;15.77;;;;;;;4.25;79.69;101455.06;5037940;28;20030;-66
2021/11/19 02:52:32;;;;;;;30.63;17.75;;;;;;;4.26;79.14;101451.13;5038024;28;20108;-64
2021/11/19 02:55:00;;;;;;;36.55;18.92;;;;;;;4.24;79.46;101447.88;5037602;28;20020;-64
2021/11/19 02:57:26;;;;;;;39.40;20.67;;;;;;;4.21;79.81;101456.91;5037469;28;20033;-64
2021/11/19 02:59:53;;;;;;;39.42;21.10;;;;;;;4.20;79.63;101461.66;5037661;28;20018;-63
2021/11/19 03:02:30;;;;;;;36.55;19.98;;;;;;;4.14;78.94;101449.06;5037438;28;20294;-62
2021/11/19 03:04:59;;;;;;;50.20;22.90;;;;;;;4.11;79.28;101446.13;5037669;28;20516;-48
2021/11/19 03:07:26;;;;;;;95.20;35.88;;;;;;;4.20;79.20;101430.22;5037285;28;20471;-44
2021/11/19 03:10:02;;;;;;;52.50;22.77;;;;;;;4.23;79.17;101423.97;5037619;28;20024;-63
2021/11/19 03:12:30;;;;;;;46.53;21.83;;;;;;;4.25;79.27;101421.69;5035658;28;20060;-55
2021/11/19 03:14:57;;;;;;;46.20;21.05;;;;;;;4.31;79.87;101412.78;5037224;28;20040;-62
2021/11/19 03:17:24;;;;;;;31.48;17.95;;;;;;;4.41;79.44;101408.81;5037368;28;20033;-50
2021/11/19 03:19:50;;;;;;;36.05;20.05;;;;;;;4.42;79.01;101416.03;5037006;28;20075;-52
2021/11/19 03:22:18;;;;;;;34.97;18.60;;;;;;;4.47;79.19;101415.00;5037688;28;20029;-52
2021/11/19 03:24:44;;;;;;;28.80;16.90;;;;;;;4.50;78.76;101417.94;5037107;28;20034;-63
2021/11/19 03:27:11;;;;;;;28.17;16.45;;;;;;;4.49;78.87;101413.53;5036936;28;20025;-48
2021/11/19 03:29:39;;;;;;;25.63;14.85;;;;;;;4.48;79.11;101411.88;5037341;28;20025;-51
2021/11/19 03:32:06;;;;;;;24.38;14.55;;;;;;;4.47;78.91;101415.81;5037077;28;20017;-63
2021/11/19 03:34:32;;;;;;;24.13;14.15;;;;;;;4.49;79.08;101421.88;5036715;28;20025;-53
2021/11/19 03:36:57;;;;;;;26.25;14.98;;;;;;;4.48;79.32;101422.22;5036866;28;20026;-63
2021/11/19 03:39:26;;;;;;;25.48;15.45;;;;;;;4.49;79.25;101421.88;5037092;28;20087;-63
2021/11/19 03:41:52;;;;;;;22.52;14.20;;;;;;;4.61;78.52;101408.03;5036570;28;20028;-48
2021/11/19 03:44:26;;;;;;;26.92;16.70;;;;;;;4.74;78.80;101406.16;5035819;28;20383;-65
2021/11/19 03:46:58;;;;;;;29.83;15.13;;;;;;;4.76;78.07;101408.59;5036040;28;20030;-44
2021/11/19 03:49:24;;;;;;;22.08;14.00;;;;;;;4.74;78.48;101410.91;5035358;28;20070;-64
2021/11/19 03:52:01;;;;;;;23.80;14.00;;;;;;;4.80;78.88;101407.56;5031157;28;20100;-49
2021/11/19 03:54:29;;;;;;;21.27;13.23;;;;;;;4.86;78.58;101408.19;5025996;28;20095;-65
2021/11/19 03:56:56;;;;;;;22.90;13.23;;;;;;;4.87;78.14;101402.28;5036472;28;20079;-53
2021/11/19 03:59:22;;;;;;;19.00;13.18;;;;;;;4.95;78.31;101412.56;5036506;28;20037;-64
2021/11/19 04:01:50;;;;;;;21.55;13.77;;;;;;;5.03;78.10;101416.41;5036506;28;20036;-53
2021/11/19 04:04:18;;;;;;;21.50;13.43;;;;;;;5.12;77.42;101410.75;5036159;28;20037;-64
2021/11/19 04:06:44;;;;;;;23.42;13.93;;;;;;;5.13;77.35;101424.34;5036656;28;20025;-64
2021/11/19 04:09:16;;;;;;;23.60;13.45;;;;;;;5.13;77.95;101421.56;5036239;28;20039;-64
2021/11/19 04:11:42;;;;;;;23.95;14.32;;;;;;;5.20;77.31;101430.22;5036378;28;20025;-49
2021/11/19 04:14:08;;;;;;;24.23;14.30;;;;;;;5.16;76.96;101445.16;5036359;28;20420;-48
2021/11/19 04:16:44;;;;;;;21.85;12.90;;;;;;;5.20;77.61;101433.00;5035964;28;20030;-65
2021/11/19 04:19:11;;;;;;;27.10;15.68;;;;;;;5.28;77.24;101420.13;5036127;28;20028;-44
2021/11/19 04:21:38;;;;;;;29.80;16.85;;;;;;;5.35;77.20;101400.88;5035969;28;20044;-51
2021/11/19 04:24:07;;;;;;;26.85;16.58;;;;;;;5.43;76.98;101401.94;5025796;28;20032;-44
2021/11/19 04:26:34;;;;;;;23.38;14.38;;;;;;;5.43;76.52;101394.38;5030249;28;20032;-63
2021/11/19 04:29:00;;;;;;;22.45;13.82;;;;;;;5.44;77.06;101384.06;5035113;28;20021;-49
2021/11/19 04:31:29;;;;;;;25.85;14.15;;;;;;;5.48;77.00;101379.44;5035899;28;20029;-64
2021/11/19 04:33:56;;;;;;;25.73;13.13;;;;;;;5.51;76.61;101368.41;5035945;28;20327;-48
2021/11/19 04:36:22;;;;;;;21.02;12.98;;;;;;;5.55;76.43;101368.53;5035985;28;20033;-44
2021/11/19 04:38:47;;;;;;;19.63;12.40;;;;;;;5.52;76.27;101364.47;5034729;28;20025;-58
2021/11/19 04:41:15;;;;;;;22.20;13.20;;;;;;;5.51;76.43;101373.16;5035671;28;20427;-51
2021/11/19 04:43:41;;;;;;;22.50;13.77;;;;;;;5.52;76.26;101370.03;5031172;28;20113;-49
2021/11/19 04:46:07;;;;;;;26.60;14.80;;;;;;;5.48;76.17;101369.09;5035565;28;20112;-51
2021/11/19 04:48:34;;;;;;;24.35;14.30;;;;;;;5.43;76.29;101382.41;5035343;28;20032;-58
2021/11/19 04:51:03;;;;;;;22.58;13.98;;;;;;;5.40;76.82;101388.69;5030543;28;20429;-48
2021/11/19 04:53:28;;;;;;;24.00;14.63;;;;;;;5.37;77.11;101383.81;5035420;28;20100;-52
2021/11/19 04:55:55;;;;;;;28.35;15.75;;;;;;;5.33;77.18;101402.38;5035601;28;20109;-64
2021/11/19 04:58:21;;;;;;;34.58;18.67;;;;;;;5.36;77.46;101396.13;5035717;28;20029;-64
2021/11/19 05:00:51;;;;;;;28.67;17.15;;;;;;;5.35;77.47;101391.69;5035053;28;20392;-52
2021/11/19 05:03:18;;;;;;;34.72;18.02;;;;;;;5.36;77.78;101396.13;5034752;28;20035;-50
2021/11/19 05:05:44;;;;;;;40.90;20.55;;;;;;;5.47;77.36;101395.31;5035009;28;20068;-64
2021/11/19 05:08:10;;;;;;;42.03;20.45;;;;;;;5.55;77.09;101400.03;5035389;28;20034;-63
2021/11/19 05:10:38;;;;;;;28.15;15.40;;;;;;;5.58;77.42;101401.31;5035137;28;20052;-63
2021/11/19 05:13:04;;;;;;;23.50;14.93;;;;;;;5.60;76.96;101407.34;5035431;28;20030;-64
2021/11/19 05:15:31;;;;;;;27.05;13.57;;;;;;;5.62;76.47;101398.63;5034966;28;20025;-63
2021/11/19 05:17:56;;;;;;;25.80;14.95;;;;;;;5.61;76.99;101392.25;5035835;28;20033;-62
2021/11/19 05:20:23;;;;;;;32.78;16.35;;;;;;;5.59;77.46;101381.44;5035417;28;20104;-62
2021/11/19 05:22:50;;;;;;;34.38;17.17;;;;;;;5.65;76.72;101379.22;5035221;28;20029;-61
2021/11/19 05:25:19;;;;;;;59.97;25.70;;;;;;;5.67;77.10;101376.09;5035034;28;20291;-62
2021/11/19 05:27:45;;;;;;;58.60;23.92;;;;;;;5.70;76.75;101373.44;5035058;28;20029;-54
2021/11/19 05:30:13;;;;;;;58.50;23.25;;;;;;;5.73;76.95;101367.16;5034845;28;20025;-61
2021/11/19 05:32:38;;;;;;;41.15;18.73;;;;;;;5.78;76.78;101361.38;5034879;28;20033;-61
2021/11/19 05:35:08;;;;;;;27.55;15.05;;;;;;;5.84;76.94;101359.97;5034968;28;20319;-63
2021/11/19 05:37:34;;;;;;;33.38;16.55;;;;;;;5.86;76.22;101371.59;5035063;28;20025;-62
2021/11/19 05:39:59;;;;;;;38.40;18.58;;;;;;;5.86;76.45;101376.38;5035407;28;20021;-63
2021/11/19 05:42:24;;;;;;;33.55;17.10;;;;;;;5.86;76.36;101368.00;5035128;28;20060;-62
2021/11/19 05:44:50;;;;;;;28.48;15.30;;;;;;;5.83;76.01;101366.72;5033396;28;20052;-63
2021/11/19 05:47:15;;;;;;;21.38;13.93;;;;;;;5.87;76.08;101378.00;5034823;28;20036;-50
2021/11/19 05:49:41;;;;;;;29.98;16.13;;;;;;;5.86;76.21;101371.59;5033231;28;20029;-63
2021/11/19 05:52:09;;;;;;;24.27;14.75;;;;;;;5.85;76.10;101381.13;5032806;28;20076;-62
2021/11/19 05:54:36;;;;;;;22.05;14.90;;;;;;;5.88;76.13;101371.25;5029212;28;20026;-61
2021/11/19 05:57:04;;;;;;;22.42;13.30;;;;;;;5.92;76.26;101368.59;5039979;28;20344;-51
2021/11/19 05:59:30;;;;;;;18.20;11.82;;;;;;;5.99;76.16;101368.84;5030949;28;20314;-53
2021/11/19 06:01:56;;;;;;;21.38;13.18;;;;;;;6.01;75.65;101360.94;5034689;28;20029;-62
2021/11/19 06:04:22;;;;;;;27.75;14.98;;;;;;;6.02;75.64;101359.78;5025181;28;20021;-63
2021/11/19 06:06:48;;;;;;;31.63;15.80;;;;;;;6.00;75.85;101365.69;5035286;28;20108;-63
2021/11/19 06:09:19;;;;;;;26.95;14.57;;;;;;;5.99;75.98;101363.25;5041269;28;20096;-60
2021/11/19 06:11:54;;;;;;;24.55;13.93;;;;;;;5.98;76.17;101358.84;5038512;28;20045;-63
2021/11/19 06:14:28;;;;;;;21.58;12.75;;;;;;;6.02;76.25;101371.75;5038256;28;20321;-63
2021/11/19 06:16:57;;;;;;;22.17;12.40;;;;;;;5.99;76.29;101366.88;5024731;28;20104;-63
2021/11/19 06:19:26;;;;;;;17.35;11.63;;;;;;;6.02;76.41;101368.13;5036705;28;20043;-62
2021/11/19 06:22:00;;;;;;;18.90;11.57;;;;;;;6.05;76.64;101375.84;5036580;28;20044;-63
2021/11/19 06:24:29;;;;;;;18.48;11.95;;;;;;;6.09;76.66;101371.19;5036660;28;20079;-64
2021/11/19 06:26:56;;;;;;;19.17;11.68;;;;;;;6.10;76.36;101367.22;5036760;28;20048;-57
2021/11/19 06:29:21;;;;;;;18.42;10.80;;;;;;;6.16;76.51;101365.84;5036753;28;20468;-57
2021/11/19 06:31:49;;;;;;;19.25;11.88;;;;;;;6.17;76.34;101373.03;5037018;28;20109;-63
2021/11/19 06:34:15;;;;;;;19.95;11.60;;;;;;;6.20;76.38;101370.38;5038148;28;20033;-62
2021/11/19 06:36:41;;;;;;;24.75;12.60;;;;;;;6.24;76.42;101378.03;5037666;28;20320;-58
2021/11/19 06:39:08;;;;;;;27.55;15.10;;;;;;;6.26;77.24;101379.31;5038331;28;20321;-62
2021/11/19 06:41:33;;;;;;;30.27;14.57;;;;;;;6.33;76.69;101368.41;5038015;28;20352;-60
2021/11/19 06:43:59;;;;;;;24.92;13.98;;;;;;;6.35;76.44;101357.69;5037407;28;20059;-62
2021/11/19 06:46:24;;;;;;;18.27;12.25;;;;;;;6.34;76.67;101347.69;5038121;28;20033;-62
2021/11/19 06:48:50;;;;;;;17.65;11.00;;;;;;;6.35;76.74;101357.69;5037814;28;20104;-62
2021/11/19 06:51:18;;;;;;;15.50;10.73;;;;;;;6.40;77.03;101374.19;5038249;28;20017;-63
2021/11/19 06:53:44;;;;;;;16.55;11.95;;;;;;;6.45;76.48;101362.78;5037679;28;20033;-62
2021/11/19 06:56:10;;;;;;;22.05;11.93;;;;;;;6.48;76.74;101366.84;5037791;28;20026;-62
2021/11/19 06:58:36;;;;;;;22.30;12.77;;;;;;;6.50;76.40;101370.91;5037530;28;20037;-62
2021/11/19 07:01:02;;;;;;;21.35;11.95;;;;;;;6.53;76.30;101366.59;5037487;28;20031;-62
2021/11/19 07:03:29;;;;;;;19.45;11.60;;;;;;;6.60;76.37;101368.81;5036953;28;20029;-62
2021/11/19 07:05:55;;;;;;;23.40;13.45;;;;;;;6.67;76.38;101369.03;5037573;28;20413;-62
2021/11/19 07:08:21;;;;;;;25.35;14.60;;;;;;;6.68;76.45;101365.06;5037425;28;20112;-62
2021/11/19 07:10:50;;;;;;;17.95;11.07;;;;;;;6.73;76.53;101368.44;5037372;28;20298;-62
2021/11/19 07:13:16;;;;;;;19.88;11.20;;;;;;;6.76;76.29;101356.53;5037437;28;20080;-62
2021/11/19 07:15:42;;;;;;;35.45;11.45;;;;;;;6.82;75.87;101351.50;5037097;28;20025;-60
2021/11/19 07:18:09;;;;;;;18.92;10.57;;;;;;;6.81;76.20;101341.50;5037214;28;20080;-62
2021/11/19 07:20:36;;;;;;;22.13;11.15;;;;;;;6.85;76.15;101348.03;5037639;28;20108;-63
2021/11/19 07:23:04;;;;;;;15.77;9.65;;;;;;;6.92;75.78;101350.22;5037177;28;20388;-63
2021/11/19 07:25:31;;;;;;;17.15;9.60;;;;;;;6.92;75.94;101342.66;5037314;28;20105;-51
2021/11/19 07:27:59;;;;;;;14.32;9.35;;;;;;;6.96;75.49;101337.16;5037079;28;20104;-62
2021/11/19 07:30:28;;;;;;;16.67;10.18;;;;;;;6.98;75.91;101341.22;5035968;28;20064;-59
2021/11/19 07:32:54;;;;;;;13.50;9.40;;;;;;;6.99;75.93;101347.63;5037219;28;20033;-51
2021/11/19 07:35:21;;;;;;;19.63;10.80;;;;;;;7.02;75.74;101353.31;5036904;28;20025;-62
2021/11/19 07:37:46;;;;;;;16.17;10.38;;;;;;;7.08;75.78;101348.28;5035874;28;20033;-62
2021/11/19 07:40:14;;;;;;;18.00;11.15;;;;;;;7.12;75.63;101346.41;5036969;28;20480;-63
2021/11/19 07:42:40;;;;;;;28.10;13.18;;;;;;;7.17;75.31;101343.38;5036946;28;20112;-62
2021/11/19 07:45:07;;;;;;;17.02;10.68;;;;;;;7.23;75.62;101335.53;5036525;28;20124;-63
2021/11/19 07:47:33;;;;;;;18.83;10.95;;;;;;;7.24;75.14;101354.75;5036852;28;20063;-62
2021/11/19 07:49:59;;;;;;;16.15;10.77;;;;;;;7.28;75.67;101354.84;5036846;28;20437;-62
2021/11/19 07:52:24;;;;;;;39.30;17.40;;;;;;;7.31;75.29;101354.13;5036624;28;20036;-62
2021/11/19 07:54:50;;;;;;;23.35;12.20;;;;;;;7.34;75.90;101345.81;5036499;28;20126;-62
2021/11/19 07:57:15;;;;;;;21.65;12.10;;;;;;;7.36;75.53;101353.84;5036375;28;20033;-62
2021/11/19 07:59:41;;;;;;;19.63;12.10;;;;;;;7.40;75.50;101346.41;5036517;28;20025;-57
2021/11/19 08:02:07;;;;;;;16.33;11.05;;;;;;;7.39;75.56;101334.38;5036508;28;20365;-63
2021/11/19 08:04:34;;;;;;;20.25;11.73;;;;;;;7.42;75.38;101332.88;5036560;28;20096;-62
2021/11/19 08:07:01;;;;;;;18.90;11.55;;;;;;;7.44;75.75;101330.53;5036733;28;20294;-62
2021/11/19 08:09:27;;;;;;;20.38;12.25;;;;;;;7.50;75.90;101331.88;5036250;28;20043;-46
2021/11/19 08:11:52;;;;;;;18.27;11.85;;;;;;;7.57;76.08;101320.06;5036119;28;20412;-62
2021/11/19 08:14:19;;;;;;;22.55;12.98;;;;;;;7.58;75.58;101319.69;5036204;28;20036;-63
2021/11/19 08:16:48;;;;;;;23.08;12.52;;;;;;;7.63;76.36;101319.41;5035918;28;20067;-62
2021/11/19 08:19:43;;;;;;;19.17;12.82;;;;;;;7.69;76.35;101309.59;5036341;28;20029;-58
2021/11/19 08:22:08;;;;;;;19.05;11.13;;;;;;;7.70;76.30;101316.84;5023981;28;20021;-62
2021/11/19 08:24:34;;;;;;;18.83;10.95;;;;;;;7.77;76.26;101330.19;5035878;28;20431;-62
2021/11/19 08:27:05;;;;;;;19.70;12.05;;;;;;;7.82;76.03;101335.50;5036055;28;20024;-63
2021/11/19 08:29:32;;;;;;;17.10;11.23;;;;;;;7.88;76.25;101336.03;5036108;28;20040;-62
2021/11/19 08:32:00;;;;;;;32.78;14.43;;;;;;;7.91;76.11;101343.72;5035875;28;20047;-59
2021/11/19 08:34:27;;;;;;;21.40;12.63;;;;;;;7.95;75.84;101337.06;5035987;28;20022;-63
2021/11/19 08:36:53;;;;;;;21.40;12.07;;;;;;;7.98;76.37;101338.31;5035742;28;20413;-61
2021/11/19 08:39:21;;;;;;;20.20;11.70;;;;;;;8.03;75.40;101340.84;5035846;28;20033;-62
2021/11/19 08:41:47;;;;;;;18.73;11.95;;;;;;;8.06;75.73;101345.72;5035561;28;20428;-62
2021/11/19 08:44:13;;;;;;;20.45;12.93;;;;;;;8.11;76.09;101342.63;5035947;28;20049;-56
2021/11/19 08:46:45;;;;;;;20.17;12.43;;;;;;;8.19;76.50;101335.19;5035799;28;20059;-63
2021/11/19 08:49:13;;;;;;;27.30;15.45;;;;;;;8.30;76.29;101339.09;5035499;28;20029;-62
2021/11/19 08:51:39;;;;;;;27.08;14.85;;;;;;;8.43;77.09;101342.59;5034693;28;20029;-63
2021/11/19 08:54:07;;;;;;;22.90;13.40;;;;;;;8.56;76.13;101346.91;5035459;28;20025;-63
2021/11/19 08:56:40;;;;;;;25.15;13.38;;;;;;;8.68;76.17;101346.78;5035373;28;20038;-63
2021/11/19 08:59:09;;;;;;;26.00;13.82;;;;;;;8.76;75.84;101337.34;5035489;28;20087;-63
2021/11/19 09:01:36;;;;;;;31.42;14.02;;;;;;;8.80;74.97;101334.63;5034594;28;20351;-61
2021/11/19 09:04:02;;;;;;;24.15;13.60;;;;;;;8.82;74.77;101326.66;5035333;28;20033;-61
2021/11/19 09:06:28;;;;;;;19.67;11.95;;;;;;;8.83;74.01;101331.91;5035587;28;20045;-63
2021/11/19 09:08:53;;;;;;;20.27;12.52;;;;;;;8.81;74.31;101323.06;5035033;28;20114;-63
2021/11/19 09:11:22;;;;;;;20.35;12.85;;;;;;;8.82;74.10;101319.06;5035342;28;20033;-63
2021/11/19 09:13:50;;;;;;;19.48;12.48;;;;;;;8.84;74.04;101324.31;5035490;28;20075;-63
2021/11/19 09:16:19;;;;;;;20.85;12.45;;;;;;;8.84;74.38;101319.50;5035114;28;20025;-63
2021/11/19 09:19:05;;;;;;;20.73;12.48;;;;;;;8.85;74.88;101325.94;5035280;28;20022;-63
2021/11/19 09:21:34;;;;;;;21.08;11.75;;;;;;;8.86;74.92;101330.34;5035333;28;20026;-63
2021/11/19 09:24:02;;;;;;;23.45;12.85;;;;;;;8.88;75.14;101326.00;5035306;28;20022;-63
2021/11/19 09:26:42;;;;;;;20.65;12.13;;;;;;;8.88;74.81;101314.78;5038236;28;20017;-63
2021/11/19 09:29:12;;;;;;;24.63;12.68;;;;;;;8.89;74.78;101304.38;5039528;28;20302;-63
2021/11/19 09:31:39;;;;;;;23.83;12.77;;;;;;;8.91;74.61;101314.03;5039202;28;20102;-63
2021/11/19 09:34:06;;;;;;;22.02;13.40;;;;;;;8.92;74.42;101309.25;5039530;28;20026;-63
2021/11/19 09:36:32;;;;;;;26.27;14.07;;;;;;;8.96;74.43;101305.31;5039369;28;20432;-63
2021/11/19 09:38:58;;;;;;;28.52;14.88;;;;;;;8.98;74.69;101314.19;5037968;28;20039;-63
2021/11/19 09:41:23;;;;;;;25.50;14.10;;;;;;;9.00;74.21;101305.41;5039299;28;20029;-63
2021/11/19 09:44:30;;;;;;;29.50;14.95;;;;;;;9.02;74.21;101305.03;5038917;28;20030;-63
2021/11/19 09:47:04;;;;;;;26.85;14.48;;;;;;;9.02;73.91;101303.03;5038985;28;20025;-63
2021/11/19 09:49:35;;;;;;;22.20;13.38;;;;;;;9.04;73.81;101306.31;5039146;28;20033;-62
2021/11/19 09:52:26;;;;;;;26.23;13.70;;;;;;;9.07;73.65;101304.75;5037737;28;20409;-63
2021/11/19 09:55:13;;;;;;;20.40;12.50;;;;;;;9.10;73.87;101293.59;5038942;28;20033;-63
2021/11/19 09:58:20;;;;;;;22.63;12.70;;;;;;;9.11;73.88;101286.00;5038672;28;20022;-62
2021/11/19 10:01:27;;;;;;;22.98;12.60;;;;;;;9.12;74.11;101282.00;5038554;28;20097;-63
2021/11/19 10:04:19;;;;;;;24.15;13.38;;;;;;;9.15;73.50;101275.66;5018628;28;20044;-64
2021/11/19 10:06:56;;;;;;;26.48;13.93;;;;;;;9.17;73.92;101270.47;5038553;28;20114;-63
2021/11/19 10:09:25;;;;;;;30.02;15.80;;;;;;;9.15;74.12;101265.25;5038464;28;20029;-63
2021/11/19 10:11:56;;;;;;;27.33;14.55;;;;;;;9.15;73.78;101253.22;5038669;28;20029;-63
2021/11/19 10:14:42;;;;;;;30.00;14.38;;;;;;;9.16;74.50;101250.03;5038625;28;20031;-63
2021/11/19 10:17:26;;;;;;;26.30;13.88;;;;;;;9.20;74.48;101247.28;5026785;28;20034;-63
2021/11/19 10:19:56;;;;;;;24.13;14.45;;;;;;;9.23;74.41;101252.16;5038163;28;20030;-63
2021/11/19 10:22:41;;;;;;;22.42;13.23;;;;;;;9.26;74.06;101255.03;5038359;28;20033;-63
2021/11/19 10:25:29;;;;;;;22.80;13.18;;;;;;;9.27;74.23;101241.81;5038179;28;20021;-63
2021/11/19 10:27:58;;;;;;;25.02;13.00;;;;;;;9.31;74.44;101248.28;5038386;28;20040;-63
2021/11/19 10:30:40;;;;;;;23.48;13.57;;;;;;;9.33;74.42;101239.53;5038107;28;20025;-63
2021/11/19 10:33:31;;;;;;;24.08;13.90;;;;;;;9.34;73.96;101219.50;5038382;28;20033;-63
2021/11/19 10:36:24;;;;;;;26.60;14.00;;;;;;;9.36;74.23;101222.75;5026890;28;20417;-63
2021/11/19 10:38:55;;;;;;;23.92;13.48;;;;;;;9.38;74.07;101216.75;5037601;28;20068;-63
2021/11/19 10:41:29;;;;;;;25.75;14.00;;;;;;;9.42;74.78;101207.22;5038292;28;20032;-63
2021/11/19 10:44:16;;;;;;;22.38;12.88;;;;;;;9.44;74.06;101202.03;5037537;28;20107;-63
2021/11/19 10:47:05;;;;;;;24.73;12.93;;;;;;;9.46;74.20;101210.88;5037012;28;20026;-63
2021/11/19 10:49:38;;;;;;;20.60;12.07;;;;;;;9.48;73.94;101202.91;5026724;28;20033;-64
2021/11/19 10:52:09;;;;;;;22.25;12.65;;;;;;;9.50;73.54;101191.28;5036698;28;20320;-63
2021/11/19 10:54:46;;;;;;;22.77;12.55;;;;;;;9.54;73.06;101195.78;5037650;28;20029;-63
2021/11/19 10:57:30;;;;;;;23.42;14.05;;;;;;;9.56;73.37;101195.41;5037898;28;20025;-63
2021/11/19 11:00:04;;;;;;;24.45;11.65;;;;;;;9.60;72.89;101191.47;5037599;28;20025;-63
2021/11/19 11:02:52;;;;;;;20.42;12.18;;;;;;;9.62;73.33;101207.13;5037688;28;20021;-49
2021/11/19 11:05:41;;;;;;;26.95;12.88;;;;;;;9.66;73.15;101194.78;5037305;28;20086;-63
2021/11/19 11:08:23;;;;;;;25.92;14.00;;;;;;;9.69;72.39;101196.81;5025405;28;20078;-63
2021/11/19 11:10:49;;;;;;;24.13;13.70;;;;;;;9.71;72.77;101188.03;5037435;28;20063;-63
2021/11/19 11:13:41;;;;;;;24.98;12.90;;;;;;;9.75;72.07;101175.66;5037635;28;20246;-63
2021/11/19 11:16:37;;;;;;;21.83;12.95;;;;;;;9.77;72.03;101183.69;5037418;28;20064;-63
2021/11/19 11:19:14;;;;;;;27.40;14.55;;;;;;;9.75;72.74;101180.47;5025311;28;20336;-63
2021/11/19 11:21:59;;;;;;;21.67;12.07;;;;;;;9.77;72.46;101198.53;5036168;28;20021;-63
2021/11/19 11:24:31;;;;;;;22.67;13.98;;;;;;;9.77;72.32;101186.50;5037474;28;20117;-63
2021/11/19 11:27:11;;;;;;;25.20;14.07;;;;;;;9.80;72.74;101197.78;5037345;28;20022;-63
2021/11/19 11:29:40;;;;;;;23.20;13.55;;;;;;;9.80;72.31;101186.56;5037186;28;20021;-63
2021/11/19 11:32:14;;;;;;;21.55;13.45;;;;;;;9.81;72.38;101182.56;5037128;28;20363;-62